createdAt,value
2019-03-23T00:01:25.013Z,49.10
2019-03-23T00:03:54.706Z,46.97
2019-03-23T00:06:30.734Z,49.97
2019-03-23T00:08:55.518Z,50.40
2019-03-23T00:11:25.114Z,48.47
2019-03-23T00:13:54.700Z,52.03
2019-03-23T00:16:24.554Z,53.00
2019-03-23T00:18:54.042Z,40.93
2019-03-23T00:21:23.639Z,42.70
2019-03-23T00:23:53.450Z,50.37
2019-03-23T00:26:23.191Z,35.10
2019-03-23T00:28:53.194Z,34.97
2019-03-23T00:31:22.749Z,35.10
2019-03-23T00:33:52.366Z,32.50
2019-03-23T00:36:22.060Z,31.47
2019-03-23T00:38:51.820Z,33.30
2019-03-23T00:41:21.423Z,36.83
2019-03-23T00:43:51.045Z,40.03
2019-03-23T00:46:21.011Z,38.27
2019-03-23T00:48:50.529Z,39.37
2019-03-23T00:51:20.222Z,43.70
2019-03-23T00:53:49.904Z,44.27
2019-03-23T00:56:19.698Z,38.03
2019-03-23T00:58:49.296Z,34.07
2019-03-23T01:01:18.995Z,38.00
2019-03-23T01:03:48.603Z,44.77
2019-03-23T01:06:18.395Z,38.27
2019-03-23T01:08:48.204Z,45.90
2019-03-23T01:11:18.187Z,38.20
2019-03-23T01:13:47.850Z,46.33
2019-03-23T01:16:17.613Z,47.97
2019-03-23T01:18:47.233Z,48.20
2019-03-23T01:21:16.998Z,49.30
2019-03-23T01:23:46.593Z,46.93
2019-03-23T01:26:16.340Z,45.70
2019-03-23T01:28:46.397Z,48.73
2019-03-23T01:31:16.265Z,46.77
2019-03-23T01:33:45.935Z,53.83
2019-03-23T01:36:15.562Z,37.33
2019-03-23T01:38:45.185Z,56.17
2019-03-23T01:41:14.894Z,53.23
2019-03-23T01:43:45.083Z,49.30
2019-03-23T01:46:14.658Z,48.30
2019-03-23T01:48:44.564Z,42.67
2019-03-23T01:51:14.163Z,41.33
2019-03-23T01:53:44.014Z,44.80
2019-03-23T01:56:13.778Z,52.17
2019-03-23T01:58:43.569Z,46.90
2019-03-23T02:01:13.264Z,44.13
2019-03-23T02:03:42.848Z,46.10
2019-03-23T02:06:12.562Z,45.07
2019-03-23T02:08:42.899Z,42.80
2019-03-23T02:11:12.711Z,48.67
2019-03-23T02:13:42.250Z,54.80
2019-03-23T02:16:12.130Z,46.90
2019-03-23T02:18:41.910Z,44.77
2019-03-23T02:21:11.798Z,50.67
2019-03-23T02:23:41.395Z,61.77
2019-03-23T02:26:11.118Z,59.47
2019-03-23T02:28:40.627Z,67.30
2019-03-23T02:31:10.186Z,48.27
2019-03-23T02:33:40.191Z,64.80
2019-03-23T02:36:09.818Z,56.87
2019-03-23T02:38:39.361Z,50.93
2019-03-23T02:41:08.809Z,49.03
2019-03-23T02:43:38.377Z,59.20
2019-03-23T02:46:08.143Z,64.43
2019-03-23T02:48:37.691Z,55.33
2019-03-23T02:51:07.336Z,58.23
2019-03-23T02:53:36.944Z,55.43
2019-03-23T02:56:06.772Z,55.63
2019-03-23T02:58:36.442Z,51.63
2019-03-23T03:01:06.121Z,52.40
2019-03-23T03:03:36.015Z,52.37
2019-03-23T03:06:05.797Z,46.20
2019-03-23T03:08:35.418Z,50.67
2019-03-23T03:11:05.051Z,50.27
2019-03-23T03:13:34.579Z,51.53
2019-03-23T03:16:04.135Z,47.17
2019-03-23T03:18:34.048Z,39.07
2019-03-23T03:21:03.680Z,52.50
2019-03-23T03:23:33.373Z,46.70
2019-03-23T03:26:02.886Z,51.13
2019-03-23T03:28:32.562Z,46.67
2019-03-23T03:31:02.111Z,49.10
2019-03-23T03:33:31.684Z,47.53
2019-03-23T03:36:01.135Z,51.37
2019-03-23T03:38:30.610Z,51.40
2019-03-23T03:41:00.445Z,47.90
2019-03-23T03:43:30.302Z,52.20
2019-03-23T03:45:59.931Z,44.20
2019-03-23T03:48:29.443Z,43.63
2019-03-23T03:50:59.332Z,49.00
2019-03-23T03:53:28.909Z,49.00
2019-03-23T03:55:58.454Z,46.57
2019-03-23T03:58:28.010Z,45.47
2019-03-23T04:00:57.594Z,54.47
2019-03-23T04:03:27.163Z,46.13
2019-03-23T04:05:56.643Z,50.60
2019-03-23T04:08:26.511Z,43.43
2019-03-23T04:10:56.299Z,56.33
2019-03-23T04:13:25.822Z,51.90
2019-03-23T04:15:55.438Z,52.17
2019-03-23T04:18:25.007Z,46.90
2019-03-23T04:20:54.655Z,48.80
2019-03-23T04:23:24.093Z,47.53
2019-03-23T04:25:53.738Z,56.63
2019-03-23T04:28:23.272Z,56.30
2019-03-23T04:30:52.720Z,59.23
2019-03-23T04:33:22.299Z,51.43
2019-03-23T04:35:52.179Z,53.17
2019-03-23T04:38:23.057Z,53.90
2019-03-23T04:40:52.983Z,49.23
2019-03-23T04:43:22.887Z,51.70
2019-03-23T04:45:52.483Z,49.07
2019-03-23T04:48:22.485Z,55.03
2019-03-23T04:50:52.332Z,51.00
2019-03-23T04:53:22.602Z,56.27
2019-03-23T04:55:52.211Z,51.43
2019-03-23T04:58:22.050Z,44.30
2019-03-23T05:00:51.685Z,50.07
2019-03-23T05:03:21.730Z,41.63
2019-03-23T05:05:51.316Z,49.03
2019-03-23T05:08:20.980Z,57.17
2019-03-23T05:10:50.623Z,49.33
2019-03-23T05:13:20.567Z,54.20
2019-03-23T05:15:50.254Z,49.77
2019-03-23T05:18:20.919Z,48.07
2019-03-23T05:20:50.573Z,51.13
2019-03-23T05:23:20.111Z,49.20
2019-03-23T05:25:49.703Z,41.87
2019-03-23T05:28:19.720Z,56.60
2019-03-23T05:30:49.270Z,47.30
2019-03-23T05:33:18.870Z,45.27
2019-03-23T05:35:48.378Z,49.33
2019-03-23T05:38:18.003Z,49.97
2019-03-23T05:40:47.628Z,50.80
2019-03-23T05:43:17.087Z,44.23
2019-03-23T05:45:46.671Z,53.90
2019-03-23T05:48:16.627Z,40.90
2019-03-23T05:50:46.339Z,48.17
2019-03-23T05:53:15.919Z,46.60
2019-03-23T05:55:45.734Z,45.17
2019-03-23T05:58:15.488Z,46.67
2019-03-23T06:00:45.439Z,45.67
2019-03-23T06:03:15.078Z,48.33
2019-03-23T06:05:44.814Z,35.03
2019-03-23T06:08:14.500Z,42.40
2019-03-23T06:10:44.079Z,48.47
2019-03-23T06:13:13.735Z,43.17
2019-03-23T06:15:43.361Z,49.37
2019-03-23T06:18:12.905Z,44.27
2019-03-23T06:20:42.515Z,46.50
2019-03-23T06:23:12.319Z,52.33
2019-03-23T06:25:42.067Z,41.93
2019-03-23T06:28:11.727Z,44.23
2019-03-23T06:30:41.310Z,42.43
2019-03-23T06:33:11.066Z,48.40
2019-03-23T06:35:40.546Z,49.47
2019-03-23T06:38:10.047Z,46.17
2019-03-23T06:40:39.620Z,40.57
2019-03-23T06:43:12.480Z,50.80
2019-03-23T06:45:42.120Z,49.83
2019-03-23T06:48:11.742Z,40.93
2019-03-23T06:50:41.266Z,48.37
2019-03-23T06:53:11.163Z,43.77
2019-03-23T06:55:40.999Z,49.57
2019-03-23T06:58:10.499Z,50.03
2019-03-23T07:00:40.208Z,49.63
2019-03-23T07:03:09.817Z,46.67
2019-03-23T07:05:39.551Z,47.97
2019-03-23T07:08:09.262Z,45.47
2019-03-23T07:10:38.875Z,53.17
2019-03-23T07:13:09.552Z,42.77
2019-03-23T07:15:39.150Z,49.37
2019-03-23T07:18:08.641Z,44.80
2019-03-23T07:20:38.344Z,47.93
2019-03-23T07:23:18.476Z,49.57
2019-03-23T07:26:07.716Z,50.77
2019-03-23T07:28:37.281Z,42.97
2019-03-23T07:31:06.742Z,45.80
2019-03-23T07:33:36.683Z,45.77
2019-03-23T07:36:06.267Z,46.07
2019-03-23T07:38:35.894Z,45.10
2019-03-23T07:41:05.906Z,46.77
2019-03-23T07:43:35.552Z,47.33
2019-03-23T07:46:05.300Z,34.50
2019-03-23T07:48:34.927Z,44.07
2019-03-23T07:51:04.662Z,46.73
2019-03-23T07:53:34.251Z,41.80
2019-03-23T07:56:03.867Z,46.00
2019-03-23T07:58:33.490Z,49.63
2019-03-23T08:01:03.039Z,44.57
2019-03-23T08:03:32.587Z,46.67
2019-03-23T08:06:02.166Z,42.57
2019-03-23T08:08:31.875Z,46.57
2019-03-23T08:11:01.472Z,47.80
2019-03-23T08:13:31.264Z,44.07
2019-03-23T08:16:00.929Z,45.97
2019-03-23T08:18:30.558Z,43.37
2019-03-23T08:21:00.198Z,43.30
2019-03-23T08:23:29.790Z,40.87
2019-03-23T08:25:59.331Z,38.07
2019-03-23T08:28:28.957Z,44.73
2019-03-23T08:30:58.530Z,44.47
2019-03-23T08:33:28.598Z,40.37
2019-03-23T08:35:58.431Z,49.73
2019-03-23T08:38:28.099Z,42.63
2019-03-23T08:40:57.812Z,43.17
2019-03-23T08:43:27.882Z,46.50
2019-03-23T08:45:57.858Z,41.10
2019-03-23T08:48:28.446Z,36.83
2019-03-23T08:50:58.011Z,48.47
2019-03-23T08:53:27.559Z,42.20
2019-03-23T08:55:57.031Z,43.60
2019-03-23T08:58:30.763Z,43.43
2019-03-23T09:01:00.856Z,43.47
2019-03-23T09:03:30.426Z,43.53
2019-03-23T09:06:00.346Z,45.77
2019-03-23T09:08:30.006Z,39.10
2019-03-23T09:10:59.446Z,46.20
2019-03-23T09:13:28.959Z,46.17
2019-03-23T09:15:58.827Z,33.93
2019-03-23T09:18:28.419Z,39.43
2019-03-23T09:21:00.774Z,39.70
2019-03-23T09:23:30.239Z,41.90
2019-03-23T09:25:59.950Z,46.17
2019-03-23T09:28:29.849Z,37.87
2019-03-23T09:30:59.382Z,39.93
2019-03-23T09:33:28.990Z,37.40
2019-03-23T09:35:58.520Z,36.93
2019-03-23T09:38:28.032Z,39.93
2019-03-23T09:40:57.979Z,36.37
2019-03-23T09:43:27.418Z,33.07
2019-03-23T09:45:57.094Z,40.67
2019-03-23T09:48:26.637Z,37.63
2019-03-23T09:50:56.322Z,35.90
2019-03-23T09:53:25.898Z,42.87
2019-03-23T09:55:55.952Z,41.00
2019-03-23T09:58:25.510Z,39.47
2019-03-23T10:00:55.159Z,41.33
2019-03-23T10:03:24.773Z,43.17
2019-03-23T10:06:16.881Z,43.70
2019-03-23T10:08:46.616Z,41.47
2019-03-23T10:11:16.371Z,33.20
2019-03-23T10:14:04.975Z,30.00
2019-03-23T10:16:34.760Z,32.83
2019-03-23T10:19:04.305Z,32.37
2019-03-23T10:21:33.979Z,45.93
2019-03-23T10:24:04.655Z,43.10
2019-03-23T10:26:34.347Z,25.03
2019-03-23T10:29:04.008Z,29.43
2019-03-23T10:31:33.635Z,33.63
2019-03-23T10:34:03.182Z,33.37
2019-03-23T10:36:33.077Z,36.10
2019-03-23T10:39:03.110Z,40.00
2019-03-23T10:41:32.680Z,35.67
2019-03-23T10:44:02.377Z,38.40
2019-03-23T10:46:31.931Z,43.47
2019-03-23T10:49:01.628Z,42.70
2019-03-23T10:51:31.498Z,35.27
2019-03-23T10:54:00.946Z,36.97
2019-03-23T10:56:32.946Z,45.95
2019-03-23T10:59:04.918Z,43.93
2019-03-23T11:01:37.091Z,41.40
2019-03-23T11:04:07.851Z,38.63
2019-03-23T11:06:37.563Z,39.93
2019-03-23T11:09:08.943Z,38.03
2019-03-23T11:11:38.663Z,33.37
2019-03-23T11:14:08.373Z,32.90
2019-03-23T11:16:38.153Z,31.17
2019-03-23T11:19:13.459Z,32.60
2019-03-23T11:21:39.278Z,36.70
2019-03-23T11:24:08.939Z,25.10
2019-03-23T11:26:38.525Z,27.20
2019-03-23T11:29:08.624Z,33.20
2019-03-23T11:31:38.288Z,34.63
2019-03-23T11:34:17.261Z,28.60
2019-03-23T11:36:39.574Z,31.87
2019-03-23T11:39:09.361Z,27.37
2019-03-23T11:41:39.316Z,36.37
2019-03-23T11:44:11.045Z,27.13
2019-03-23T11:46:40.759Z,35.93
2019-03-23T11:49:10.484Z,76.77
2019-03-23T11:51:40.489Z,74.57
2019-03-23T11:54:10.027Z,32.90
2019-03-23T11:56:39.634Z,59.77
2019-03-23T11:59:09.127Z,33.93
2019-03-23T12:01:38.846Z,30.60
2019-03-23T12:04:08.594Z,24.47
2019-03-23T12:06:38.255Z,28.27
2019-03-23T12:09:08.884Z,200.03
2019-03-23T12:11:38.567Z,111.23
2019-03-23T12:14:09.056Z,38.13
2019-03-23T12:16:38.683Z,28.97
2019-03-23T12:19:08.277Z,23.73
2019-03-23T12:21:38.038Z,36.20
2019-03-23T12:24:07.840Z,34.07
2019-03-23T12:26:37.420Z,25.20
2019-03-23T12:29:07.163Z,29.47
2019-03-23T12:31:36.834Z,31.33
2019-03-23T12:34:08.608Z,33.43
2019-03-23T12:36:38.319Z,29.40
2019-03-23T12:39:07.967Z,27.67
2019-03-23T12:41:37.698Z,30.57
2019-03-23T12:44:07.274Z,28.63
2019-03-23T12:46:36.755Z,31.73
2019-03-23T12:49:07.406Z,32.23
2019-03-23T12:51:39.025Z,25.03
2019-03-23T12:54:08.539Z,27.17
2019-03-23T12:56:38.183Z,21.20
2019-03-23T12:59:07.674Z,19.17
2019-03-23T13:01:37.383Z,17.87
2019-03-23T13:04:06.914Z,21.03
2019-03-23T13:06:36.447Z,22.63
2019-03-23T13:09:07.853Z,16.90
2019-03-23T13:11:37.487Z,19.20
2019-03-23T13:14:07.081Z,16.53
2019-03-23T13:16:36.763Z,15.73
2019-03-23T13:19:06.434Z,12.93
2019-03-23T13:21:36.026Z,12.27
2019-03-23T13:24:07.791Z,10.47
2019-03-23T13:26:37.351Z,5.20
2019-03-23T13:29:07.078Z,14.17
2019-03-23T13:31:38.670Z,9.50
2019-03-23T13:34:08.235Z,10.13
2019-03-23T13:36:37.712Z,5.33
2019-03-23T13:39:07.884Z,9.30
2019-03-23T13:41:46.295Z,4.70
2019-03-23T13:44:19.098Z,6.00
2019-03-23T13:46:48.978Z,8.17
2019-03-23T13:49:19.004Z,4.00
2019-03-23T13:51:49.777Z,6.43
2019-03-23T13:54:19.556Z,4.07
2019-03-23T13:56:49.167Z,6.47
2019-03-23T13:59:18.847Z,5.30
2019-03-23T14:01:50.767Z,5.77
2019-03-23T14:04:20.688Z,7.30
2019-03-23T14:06:50.466Z,3.03
2019-03-23T14:09:20.462Z,6.30
2019-03-23T14:11:54.947Z,4.77
2019-03-23T14:14:21.731Z,8.03
2019-03-23T14:16:51.443Z,6.77
2019-03-23T14:19:21.131Z,9.53
2019-03-23T14:21:50.910Z,3.83
2019-03-23T14:24:21.339Z,8.10
2019-03-23T14:26:50.919Z,4.70
2019-03-23T14:29:20.925Z,4.57
2019-03-23T14:31:50.649Z,9.10
2019-03-23T14:34:20.380Z,5.23
2019-03-23T14:36:50.599Z,7.03
2019-03-23T14:39:22.385Z,2.10
2019-03-23T14:41:52.498Z,4.40
2019-03-23T14:44:25.254Z,1.67
2019-03-23T14:46:55.033Z,2.53
2019-03-23T14:49:26.859Z,4.33
2019-03-23T14:51:56.595Z,1.27
2019-03-23T14:54:26.517Z,1.83
2019-03-23T14:56:56.143Z,2.83
2019-03-23T14:59:25.755Z,1.90
2019-03-23T15:01:58.784Z,5.73
2019-03-23T15:04:28.667Z,3.17
2019-03-23T15:06:58.904Z,3.17
2019-03-23T15:09:28.613Z,3.83
2019-03-23T15:11:58.114Z,4.97
2019-03-23T15:15:43.631Z,6.03
2019-03-23T15:17:04.026Z,5.53
2019-03-23T15:19:33.908Z,4.87
2019-03-23T15:22:03.550Z,14.07
2019-03-23T15:24:33.094Z,8.17
2019-03-23T15:27:22.490Z,5.47
2019-03-23T15:29:52.095Z,4.97
2019-03-23T15:32:21.875Z,7.03
2019-03-23T15:34:51.815Z,7.90
2019-03-23T15:37:21.507Z,7.57
2019-03-23T15:39:51.247Z,2.37
2019-03-23T15:42:24.686Z,7.00
2019-03-23T15:44:52.733Z,6.87
2019-03-23T15:47:22.519Z,3.03
2019-03-23T15:49:52.570Z,7.50
2019-03-23T15:52:22.338Z,8.47
2019-03-23T15:54:51.884Z,6.97
2019-03-23T15:57:21.875Z,7.60
2019-03-23T15:59:51.948Z,5.90
2019-03-23T16:02:21.597Z,7.17
2019-03-23T16:04:51.499Z,5.27
2019-03-23T16:07:29.446Z,5.90
2019-03-23T16:09:54.941Z,10.07
2019-03-23T16:12:34.276Z,7.53
2019-03-23T16:14:56.107Z,4.93
2019-03-23T16:17:25.842Z,8.00
2019-03-23T16:19:55.543Z,8.33
2019-03-23T16:22:25.042Z,7.50
2019-03-23T16:24:54.723Z,4.43
2019-03-23T16:27:24.365Z,8.47
2019-03-23T16:29:54.048Z,291.20
2019-03-23T16:32:23.674Z,277.10
2019-03-23T16:34:53.247Z,79.27
2019-03-23T16:37:22.947Z,21.00
2019-03-23T16:39:53.047Z,8.20
2019-03-23T16:42:23.142Z,8.63
2019-03-23T16:44:52.872Z,6.77
2019-03-23T16:47:28.399Z,6.03
2019-03-23T16:49:57.983Z,8.43
2019-03-23T16:52:27.652Z,3.90
2019-03-23T16:54:57.204Z,5.37
2019-03-23T16:57:26.958Z,3.87
2019-03-23T16:59:56.463Z,5.37
2019-03-23T17:02:26.313Z,16.30
2019-03-23T17:04:55.902Z,17.13
2019-03-23T17:07:25.668Z,15.30
2019-03-23T17:09:55.210Z,8.93
2019-03-23T17:12:24.773Z,17.53
2019-03-23T17:14:57.502Z,10.57
2019-03-23T17:17:27.150Z,15.53
2019-03-23T17:19:56.789Z,13.50
2019-03-23T17:22:26.639Z,15.47
2019-03-23T17:24:56.598Z,11.80
2019-03-23T17:27:26.237Z,13.70
2019-03-23T17:29:55.871Z,11.10
2019-03-23T17:32:25.362Z,15.20
2019-03-23T17:34:55.263Z,11.80
2019-03-23T17:37:26.318Z,77.53
2019-03-23T17:39:56.390Z,572.07
2019-03-23T17:42:26.213Z,226.80
2019-03-23T17:44:55.890Z,134.07
2019-03-23T17:47:26.596Z,121.93
2019-03-23T17:49:57.816Z,95.90
2019-03-23T17:52:27.481Z,65.23
2019-03-23T17:54:57.146Z,80.13
2019-03-23T17:57:26.758Z,58.10
2019-03-23T17:59:58.258Z,37.30
2019-03-23T18:02:31.148Z,66.93
2019-03-23T18:05:00.763Z,54.97
2019-03-23T18:07:30.495Z,38.87
2019-03-23T18:10:00.309Z,31.43
2019-03-23T18:12:29.898Z,10.67
2019-03-23T18:15:00.326Z,5.47
2019-03-23T18:17:29.897Z,33.05
2019-03-23T18:19:59.817Z,13.53
2019-03-23T18:22:29.652Z,4.23
2019-03-23T18:24:59.344Z,5.10
2019-03-23T18:27:29.102Z,7.30
2019-03-23T18:29:58.747Z,6.67
2019-03-23T18:32:28.348Z,6.37
2019-03-23T18:34:57.889Z,6.90
2019-03-23T18:37:27.483Z,6.17
2019-03-23T18:39:57.311Z,7.23
2019-03-23T18:42:27.349Z,6.23
2019-03-23T18:44:57.190Z,9.47
2019-03-23T18:47:32.867Z,10.40
2019-03-23T18:50:04.819Z,6.83
2019-03-23T18:52:36.659Z,8.43
2019-03-23T18:55:06.508Z,7.30
2019-03-23T18:57:36.598Z,9.67
2019-03-23T19:00:06.872Z,5.27
2019-03-23T19:02:36.722Z,8.07
2019-03-23T19:05:06.497Z,13.83
2019-03-23T19:07:36.139Z,7.30
2019-03-23T19:10:06.578Z,10.60
2019-03-23T19:12:36.188Z,9.13
2019-03-23T19:15:06.000Z,7.33
2019-03-23T19:17:35.615Z,7.50
2019-03-23T19:20:05.752Z,7.43
2019-03-23T19:22:35.416Z,17.00
2019-03-23T19:25:15.906Z,7.20
2019-03-23T19:27:37.367Z,9.80
2019-03-23T19:30:07.451Z,9.43
2019-03-23T19:32:37.135Z,10.13
2019-03-23T19:35:07.007Z,15.53
2019-03-23T19:37:38.815Z,12.30
2019-03-23T19:40:08.782Z,19.17
2019-03-23T19:42:38.379Z,15.50
2019-03-23T19:45:08.485Z,14.03
2019-03-23T19:47:38.308Z,13.50
2019-03-23T19:50:10.312Z,14.27
2019-03-23T19:52:40.982Z,7.37
2019-03-23T19:55:10.806Z,10.77
2019-03-23T19:57:40.519Z,11.63
2019-03-23T20:00:10.878Z,9.27
2019-03-23T20:02:40.559Z,10.93
2019-03-23T20:05:10.739Z,8.43
2019-03-23T20:07:40.505Z,10.87
2019-03-23T20:10:10.534Z,11.30
2019-03-23T20:12:42.122Z,5.27
2019-03-23T20:15:12.116Z,14.47
2019-03-23T20:17:42.762Z,9.03
2019-03-23T20:20:13.043Z,9.53
2019-03-23T20:22:42.742Z,9.90
2019-03-23T20:25:12.672Z,10.10
2019-03-23T20:27:42.502Z,7.90
2019-03-23T20:30:13.354Z,14.20
2019-03-23T20:33:06.318Z,10.13
2019-03-23T20:35:36.063Z,9.40
2019-03-23T20:38:07.203Z,12.00
2019-03-23T20:40:38.921Z,7.73
2019-03-23T20:43:08.503Z,9.47
2019-03-23T20:45:38.306Z,8.77
2019-03-23T20:48:08.277Z,5.93
2019-03-23T20:50:39.371Z,10.57
2019-03-23T20:53:09.243Z,9.17
2019-03-23T20:55:39.925Z,8.97
2019-03-23T20:58:11.876Z,5.20
2019-03-23T21:00:44.364Z,8.97
2019-03-23T21:03:13.996Z,5.53
2019-03-23T21:06:03.541Z,10.80
2019-03-23T21:09:12.768Z,6.37
2019-03-23T21:12:19.503Z,10.63
2019-03-23T21:14:59.326Z,7.07
2019-03-23T21:17:53.394Z,8.30
2019-03-23T21:20:25.922Z,9.53
2019-03-23T21:23:01.584Z,11.17
2019-03-23T21:25:39.242Z,8.27
2019-03-23T21:28:30.224Z,9.50
2019-03-23T21:31:07.376Z,6.43
2019-03-23T21:33:50.094Z,8.80
2019-03-23T21:39:32.477Z,15.87
2019-03-23T21:42:02.211Z,7.70
2019-03-23T21:44:32.006Z,13.70
2019-03-23T21:47:48.524Z,8.17
2019-03-23T21:50:19.475Z,5.87
2019-03-23T21:53:00.515Z,9.63
2019-03-23T21:55:38.707Z,6.83
2019-03-23T21:58:10.455Z,8.90
2019-03-23T22:03:40.864Z,10.10
2019-03-23T22:06:40.067Z,5.43
2019-03-23T22:09:14.471Z,10.73
2019-03-23T22:15:24.121Z,5.87
2019-03-23T22:18:51.102Z,6.40
2019-03-23T22:21:26.052Z,7.00
2019-03-23T22:24:19.272Z,6.07
2019-03-23T22:27:13.900Z,8.90
2019-03-23T22:32:47.475Z,9.43
2019-03-23T22:35:44.232Z,5.47
2019-03-23T22:38:06.524Z,8.03
2019-03-23T22:44:28.057Z,9.83
2019-03-23T22:47:58.469Z,5.50
2019-03-23T22:49:43.313Z,7.27
2019-03-23T22:52:12.879Z,12.00
2019-03-23T22:54:46.097Z,8.03
2019-03-23T22:57:15.791Z,7.07
2019-03-23T22:59:45.476Z,11.87
2019-03-23T23:02:15.168Z,8.07
2019-03-23T23:04:44.812Z,8.60
2019-03-23T23:07:14.602Z,10.70
2019-03-23T23:09:44.194Z,7.53
2019-03-23T23:12:13.865Z,9.13
2019-03-23T23:14:43.528Z,11.27
2019-03-23T23:17:13.247Z,9.57
2019-03-23T23:19:42.791Z,4.10
2019-03-23T23:22:12.294Z,6.00
2019-03-23T23:24:41.892Z,6.70
2019-03-23T23:27:11.446Z,6.27
2019-03-23T23:29:41.276Z,3.97
2019-03-23T23:32:11.204Z,5.53
2019-03-23T23:34:40.904Z,4.07
2019-03-23T23:37:10.521Z,8.43
2019-03-23T23:39:40.385Z,6.90
2019-03-23T23:42:10.063Z,6.73
2019-03-23T23:44:39.560Z,7.07
2019-03-23T23:47:09.162Z,10.00
2019-03-23T23:49:38.832Z,9.80
2019-03-23T23:52:08.330Z,8.13
2019-03-23T23:54:38.299Z,13.40
2019-03-23T23:57:07.915Z,4.93
2019-03-23T23:59:37.699Z,8.83
